Kurgan, Russia
Current Conditions -  °F | °C
As of 7:00 AM on Tuesday 25 Nov 2014 (Local Time) from USTR Reporting Station
Blowing Snow Blowing Snow  
Wind Chill:   Ceiling: 4000
Heat Index: 16°   Visibility: 6mi
Dew Point:   Wind: 13mph
Humidity: 73%   Direction: 260°W
Pressure: 30.03"   Gusts: 20mph
Location:  55.45°N, 65.33°E
Report Text: USTR 250200Z 26006G09MPS 9999 DRSN BKN040CB M09/M13 Q1017 TEMPO2000 SHSN BLSN RMK QFE753/1005 21CLRD65 12420255
Loading
Personal Weather Stations






























Interactive Weather Map New forecast layout! Learn more

10-Day Weather Forecast

Advertisements
Track Severe Weather on mobile